createdAt,value
2019-02-15T00:02:28.291Z,2.79
2019-02-15T00:04:56.647Z,2.73
2019-02-15T00:07:24.973Z,2.71
2019-02-15T00:09:53.403Z,2.51
2019-02-15T00:12:21.771Z,2.58
2019-02-15T00:14:50.106Z,2.78
2019-02-15T00:17:22.125Z,2.77
2019-02-15T00:19:52.474Z,2.55
2019-02-15T00:22:20.805Z,2.47
2019-02-15T00:24:49.183Z,2.71
2019-02-15T00:27:17.517Z,2.67
2019-02-15T00:29:45.906Z,2.61
2019-02-15T00:32:14.396Z,2.46
2019-02-15T00:34:42.717Z,2.65
2019-02-15T00:37:11.625Z,2.54
2019-02-15T00:39:39.972Z,2.38
2019-02-15T00:42:08.748Z,2.31
2019-02-15T00:44:37.628Z,2.22
2019-02-15T00:47:10.020Z,2.18
2019-02-15T00:49:40.319Z,2.27
2019-02-15T00:52:11.053Z,2.40
2019-02-15T00:54:43.249Z,2.32
2019-02-15T00:57:16.226Z,2.17
2019-02-15T00:59:47.193Z,2.11
2019-02-15T01:02:18.080Z,2.14
2019-02-15T01:04:49.946Z,2.13
2019-02-15T01:07:19.712Z,2.27
2019-02-15T01:09:50.817Z,1.99
2019-02-15T01:12:21.910Z,2.12
2019-02-15T01:14:50.299Z,2.30
2019-02-15T01:17:18.650Z,2.46
2019-02-15T01:19:47.053Z,2.44
2019-02-15T01:22:15.476Z,2.42
2019-02-15T01:24:43.840Z,2.27
2019-02-15T01:27:15.078Z,2.46
2019-02-15T01:29:48.075Z,2.46
2019-02-15T01:32:19.175Z,2.41
2019-02-15T01:34:50.233Z,2.39
2019-02-15T01:37:18.550Z,2.32
2019-02-15T01:39:50.535Z,2.16
2019-02-15T01:42:20.111Z,2.20
2019-02-15T01:44:50.872Z,1.89
2019-02-15T01:47:19.578Z,1.80
2019-02-15T01:49:48.075Z,1.72
2019-02-15T01:52:16.463Z,1.69
2019-02-15T01:54:44.830Z,1.80
2019-02-15T01:57:13.375Z,1.76
2019-02-15T01:59:41.878Z,1.76
2019-02-15T02:02:10.615Z,1.75
2019-02-15T02:04:39.712Z,1.74
2019-02-15T02:07:08.073Z,1.65
2019-02-15T02:09:36.412Z,1.62
2019-02-15T02:12:05.328Z,1.62
2019-02-15T02:14:33.664Z,1.56
2019-02-15T02:17:02.173Z,1.65
2019-02-15T02:19:30.520Z,1.67
2019-02-15T02:21:59.040Z,1.69
2019-02-15T02:24:27.366Z,1.62
2019-02-15T02:26:55.718Z,1.60
2019-02-15T02:29:24.064Z,1.63
2019-02-15T02:31:52.410Z,1.54
2019-02-15T02:34:20.809Z,1.57
2019-02-15T02:36:50.683Z,1.49
2019-02-15T02:39:19.075Z,1.37
2019-02-15T02:41:47.479Z,1.26
2019-02-15T02:44:15.911Z,1.30
2019-02-15T02:46:44.306Z,1.21
2019-02-15T02:49:12.924Z,1.19
2019-02-15T02:51:41.819Z,1.23
2019-02-15T02:54:10.323Z,1.09
2019-02-15T02:56:38.655Z,1.07
2019-02-15T02:59:07.029Z,1.19
2019-02-15T03:01:35.449Z,1.13
2019-02-15T03:04:03.981Z,1.08
2019-02-15T03:06:32.310Z,1.09
2019-02-15T03:09:00.656Z,0.94
2019-02-15T03:11:29.075Z,0.99
2019-02-15T03:13:57.424Z,0.87
2019-02-15T03:16:25.782Z,0.89
2019-02-15T03:18:54.107Z,0.85
2019-02-15T03:21:22.451Z,1.19
2019-02-15T03:23:50.826Z,1.25
2019-02-15T03:26:19.259Z,1.26
2019-02-15T03:28:47.619Z,1.14
2019-02-15T03:31:15.964Z,1.22
2019-02-15T03:33:44.342Z,1.27
2019-02-15T03:36:15.707Z,1.32
2019-02-15T03:38:47.879Z,1.30
2019-02-15T03:41:18.881Z,1.20
2019-02-15T03:43:47.226Z,1.21
2019-02-15T03:46:15.586Z,1.07
2019-02-15T03:48:43.919Z,0.93
2019-02-15T03:51:12.819Z,0.93
2019-02-15T03:53:41.150Z,1.10
2019-02-15T03:56:09.899Z,0.97
2019-02-15T03:58:38.342Z,0.89
2019-02-15T04:01:06.800Z,0.87
2019-02-15T04:03:35.190Z,0.86
2019-02-15T04:06:03.680Z,0.83
2019-02-15T04:08:32.151Z,0.92
2019-02-15T04:11:00.491Z,0.84
2019-02-15T04:13:28.958Z,0.84
2019-02-15T04:15:57.316Z,0.91
2019-02-15T04:18:25.671Z,0.89
2019-02-15T04:20:54.026Z,0.83
2019-02-15T04:23:22.370Z,0.75
2019-02-15T04:25:50.710Z,0.66
2019-02-15T04:28:19.106Z,0.67
2019-02-15T04:30:47.450Z,0.74
2019-02-15T04:33:15.793Z,0.59
2019-02-15T04:35:44.176Z,0.65
2019-02-15T04:38:12.812Z,0.61
2019-02-15T04:40:41.165Z,0.80
2019-02-15T04:43:09.717Z,0.82
2019-02-15T04:45:38.074Z,0.73
2019-02-15T04:48:06.433Z,0.72
2019-02-15T04:50:34.753Z,0.67
2019-02-15T04:53:03.310Z,0.60
2019-02-15T04:55:31.721Z,0.62
2019-02-15T04:58:00.070Z,0.47
2019-02-15T05:00:28.406Z,0.52
2019-02-15T05:02:57.559Z,0.48
2019-02-15T05:05:25.955Z,0.66
2019-02-15T05:07:54.384Z,0.36
2019-02-15T05:10:22.744Z,0.28
2019-02-15T05:12:51.105Z,0.49
2019-02-15T05:15:19.536Z,0.47
2019-02-15T05:17:48.005Z,0.52
2019-02-15T05:20:16.335Z,0.27
2019-02-15T05:22:44.700Z,0.38
2019-02-15T05:25:13.528Z,0.41
2019-02-15T05:27:41.875Z,0.46
2019-02-15T05:30:10.645Z,0.32
2019-02-15T05:32:38.994Z,0.22
2019-02-15T05:35:07.457Z,0.28
2019-02-15T05:40:40.958Z,0.51
2019-02-15T05:43:09.572Z,0.43
2019-02-15T05:45:37.909Z,0.48
2019-02-15T05:48:06.743Z,0.62
2019-02-15T05:50:35.093Z,0.55
2019-02-15T05:53:03.537Z,0.70
2019-02-15T05:55:31.880Z,0.45
2019-02-15T05:58:00.210Z,0.45
2019-02-15T06:00:36.729Z,0.47
2019-02-15T06:02:58.897Z,0.38
2019-02-15T06:05:28.002Z,0.38
2019-02-15T06:07:56.329Z,0.33
2019-02-15T06:10:25.392Z,0.38
2019-02-15T06:12:53.713Z,0.43
2019-02-15T06:15:22.058Z,0.40
2019-02-15T06:17:50.434Z,0.38
2019-02-15T06:20:18.786Z,0.43
2019-02-15T06:22:47.177Z,0.48
2019-02-15T06:25:15.518Z,0.48
2019-02-15T06:27:43.845Z,0.54
2019-02-15T06:30:12.198Z,0.47
2019-02-15T06:32:40.622Z,0.53
2019-02-15T06:35:09.793Z,0.62
2019-02-15T06:37:38.134Z,0.65
2019-02-15T06:40:07.711Z,0.49
2019-02-15T06:42:36.047Z,0.68
2019-02-15T06:45:06.016Z,0.67
2019-02-15T06:47:34.351Z,0.69
2019-02-15T06:50:02.724Z,1.04
2019-02-15T06:52:31.057Z,1.42
2019-02-15T06:54:59.389Z,2.03
2019-02-15T06:57:27.756Z,2.58
2019-02-15T06:59:59.851Z,3.24
2019-02-15T07:02:31.056Z,3.37
2019-02-15T07:05:02.184Z,3.89
2019-02-15T07:07:30.545Z,4.55
2019-02-15T07:09:58.866Z,4.82
2019-02-15T07:12:27.249Z,5.29
2019-02-15T07:14:55.582Z,4.75
2019-02-15T07:17:23.921Z,5.87
2019-02-15T07:19:52.284Z,6.38
2019-02-15T07:22:20.600Z,6.83
2019-02-15T07:24:48.991Z,7.19
2019-02-15T07:27:17.326Z,7.36
2019-02-15T07:29:45.658Z,7.92
2019-02-15T07:32:13.983Z,8.07
2019-02-15T07:34:42.350Z,8.35
2019-02-15T07:37:10.703Z,9.10
2019-02-15T07:39:39.030Z,9.06
2019-02-15T07:42:07.609Z,9.43
2019-02-15T07:44:35.944Z,9.17
2019-02-15T07:47:04.269Z,9.43
2019-02-15T07:49:32.635Z,9.21
2019-02-15T07:52:01.831Z,9.84
2019-02-15T07:54:30.261Z,9.95
2019-02-15T07:56:58.593Z,9.81
2019-02-15T07:59:26.943Z,9.32
2019-02-15T08:02:01.592Z,9.57
2019-02-15T08:04:25.675Z,9.12
2019-02-15T08:06:54.029Z,7.70
2019-02-15T08:09:22.816Z,8.16
2019-02-15T08:11:51.149Z,9.15
2019-02-15T08:14:19.469Z,9.54
2019-02-15T08:16:47.836Z,8.85
2019-02-15T08:19:16.135Z,8.44
2019-02-15T08:21:44.475Z,8.66
2019-02-15T08:24:12.800Z,8.03
2019-02-15T08:26:41.227Z,7.56
2019-02-15T08:29:09.550Z,7.61
2019-02-15T08:31:37.911Z,7.04
2019-02-15T08:34:06.474Z,7.21
2019-02-15T08:36:34.800Z,6.37
2019-02-15T08:39:05.119Z,6.03
2019-02-15T08:41:33.470Z,6.22
2019-02-15T08:44:02.187Z,6.86
2019-02-15T08:46:30.558Z,7.12
2019-02-15T08:48:58.880Z,6.55
2019-02-15T08:51:27.211Z,6.29
2019-02-15T08:53:55.560Z,6.55
2019-02-15T08:56:23.874Z,6.69
2019-02-15T08:58:52.226Z,6.73
2019-02-15T09:01:20.568Z,6.03
2019-02-15T09:03:48.934Z,6.19
2019-02-15T09:06:17.256Z,5.91
2019-02-15T09:08:45.599Z,5.79
2019-02-15T09:11:13.935Z,5.35
2019-02-15T09:13:42.279Z,5.36
2019-02-15T09:16:10.804Z,5.27
2019-02-15T09:18:39.234Z,5.44
2019-02-15T09:21:07.879Z,5.56
2019-02-15T09:23:36.219Z,5.42
2019-02-15T09:26:04.621Z,5.69
2019-02-15T09:28:35.617Z,5.69
2019-02-15T09:31:04.005Z,5.91
2019-02-15T09:33:32.453Z,5.54
2019-02-15T09:36:00.780Z,5.66
2019-02-15T09:38:29.115Z,5.55
2019-02-15T09:40:57.674Z,5.63
2019-02-15T09:43:26.001Z,5.51
2019-02-15T09:45:54.449Z,5.88
2019-02-15T09:48:22.761Z,6.19
2019-02-15T09:50:51.255Z,6.25
2019-02-15T09:53:20.627Z,6.20
2019-02-15T09:55:48.990Z,6.19
2019-02-15T09:58:17.335Z,6.42
2019-02-15T10:00:45.664Z,6.64
2019-02-15T10:03:13.988Z,6.49
2019-02-15T10:05:42.348Z,6.83
2019-02-15T10:08:10.701Z,6.40
2019-02-15T10:10:39.027Z,6.62
2019-02-15T10:13:07.699Z,6.83
2019-02-15T10:15:36.047Z,6.88
2019-02-15T10:18:04.658Z,6.88
2019-02-15T10:20:32.966Z,6.95
2019-02-15T10:23:01.451Z,7.15
2019-02-15T10:25:29.804Z,7.09
2019-02-15T10:27:58.224Z,7.16
2019-02-15T10:30:26.656Z,7.03
2019-02-15T10:32:54.990Z,7.20
2019-02-15T10:35:23.333Z,7.12
2019-02-15T10:37:51.725Z,7.14
2019-02-15T10:40:20.036Z,7.13
2019-02-15T10:42:48.389Z,7.37
2019-02-15T10:45:16.669Z,7.58
2019-02-15T10:47:45.052Z,7.71
2019-02-15T10:50:13.535Z,7.83
2019-02-15T10:52:41.933Z,7.84
2019-02-15T10:55:10.930Z,7.88
2019-02-15T10:57:39.270Z,8.07
2019-02-15T11:00:13.620Z,7.96
2019-02-15T11:02:42.010Z,7.87
2019-02-15T11:05:11.174Z,8.15
2019-02-15T11:07:39.511Z,8.31
2019-02-15T11:10:09.312Z,8.49
2019-02-15T11:12:37.773Z,8.50
2019-02-15T11:15:09.970Z,8.67
2019-02-15T11:17:38.316Z,8.50
2019-02-15T11:20:10.404Z,8.39
2019-02-15T11:22:38.761Z,8.37
2019-02-15T11:25:09.685Z,8.58
2019-02-15T11:27:38.030Z,8.59
2019-02-15T11:30:10.435Z,8.79
2019-02-15T11:32:38.783Z,8.67
2019-02-15T11:35:10.121Z,8.75
2019-02-15T11:37:38.462Z,8.97
2019-02-15T11:40:09.798Z,9.17
2019-02-15T11:42:38.114Z,8.98
2019-02-15T11:45:10.341Z,9.24
2019-02-15T11:47:38.841Z,9.12
2019-02-15T11:50:10.541Z,9.23
2019-02-15T11:52:38.940Z,9.48
2019-02-15T11:55:09.787Z,9.46
2019-02-15T11:57:38.101Z,9.63
2019-02-15T12:00:14.136Z,9.60
2019-02-15T12:02:39.947Z,9.50
2019-02-15T12:05:09.638Z,9.67
2019-02-15T12:07:38.034Z,9.83
2019-02-15T12:10:09.576Z,9.89
2019-02-15T12:12:37.950Z,10.13
2019-02-15T12:15:09.409Z,10.30
2019-02-15T12:17:37.744Z,10.40
2019-02-15T12:20:10.099Z,10.49
2019-02-15T12:22:38.427Z,10.62
2019-02-15T12:25:07.854Z,10.62
2019-02-15T12:27:36.184Z,10.63
2019-02-15T12:30:09.412Z,10.66
2019-02-15T12:32:37.749Z,10.60
2019-02-15T12:35:08.280Z,10.94
2019-02-15T12:37:36.690Z,11.13
2019-02-15T12:40:07.405Z,10.90
2019-02-15T12:42:35.731Z,11.18
2019-02-15T12:45:06.978Z,11.33
2019-02-15T12:47:35.309Z,11.47
2019-02-15T12:50:07.688Z,11.65
2019-02-15T12:52:36.007Z,11.73
2019-02-15T12:55:04.397Z,11.40
2019-02-15T12:57:32.764Z,11.63
2019-02-15T13:00:01.084Z,11.69
2019-02-15T13:02:29.425Z,11.80
2019-02-15T13:04:58.205Z,11.84
2019-02-15T13:07:26.563Z,11.95
2019-02-15T13:09:54.904Z,12.08
2019-02-15T13:12:23.236Z,12.23
2019-02-15T13:14:51.578Z,12.23
2019-02-15T13:17:24.788Z,12.32
2019-02-15T13:19:50.250Z,12.27
2019-02-15T13:22:20.167Z,12.26
2019-02-15T13:24:49.591Z,12.03
2019-02-15T13:27:17.936Z,12.07
2019-02-15T13:29:46.315Z,12.30
2019-02-15T13:32:14.670Z,12.44
2019-02-15T13:34:43.113Z,12.41
2019-02-15T13:37:11.490Z,12.49
2019-02-15T13:39:39.804Z,12.50
2019-02-15T13:42:08.481Z,12.64
2019-02-15T13:44:36.911Z,12.72
2019-02-15T13:47:05.248Z,12.67
2019-02-15T13:49:33.676Z,12.80
2019-02-15T13:52:02.077Z,12.86
2019-02-15T13:54:30.429Z,12.97
2019-02-15T13:56:58.745Z,12.94
2019-02-15T13:59:27.093Z,12.92
2019-02-15T14:01:55.419Z,12.93
2019-02-15T14:04:23.841Z,13.04
2019-02-15T14:06:53.923Z,13.16
2019-02-15T14:09:22.409Z,13.18
2019-02-15T14:11:50.778Z,13.47
2019-02-15T14:14:19.159Z,13.37
2019-02-15T14:16:47.572Z,13.38
2019-02-15T14:19:15.908Z,13.39
2019-02-15T14:21:44.775Z,13.29
2019-02-15T14:24:13.285Z,13.40
2019-02-15T14:26:41.624Z,13.57
2019-02-15T14:29:10.014Z,13.41
2019-02-15T14:31:38.414Z,13.40
2019-02-15T14:34:07.073Z,13.43
2019-02-15T14:36:35.413Z,13.40
2019-02-15T14:39:06.687Z,13.43
2019-02-15T14:41:34.980Z,13.44
2019-02-15T14:44:03.380Z,13.46
2019-02-15T14:46:31.702Z,13.52
2019-02-15T14:49:00.101Z,13.56
2019-02-15T14:51:28.419Z,13.55
2019-02-15T14:53:56.783Z,13.68
2019-02-15T14:56:25.161Z,13.71
2019-02-15T14:58:53.504Z,13.71
2019-02-15T15:01:21.855Z,13.62
2019-02-15T15:03:50.167Z,13.62
2019-02-15T15:06:18.518Z,13.64
2019-02-15T15:08:46.936Z,13.62
2019-02-15T15:11:15.327Z,13.70
2019-02-15T15:13:43.709Z,13.79
2019-02-15T15:16:12.038Z,14.09
2019-02-15T15:18:40.363Z,14.27
2019-02-15T15:21:08.817Z,14.12
2019-02-15T15:23:37.141Z,14.16
2019-02-15T15:26:11.590Z,14.28
2019-02-15T15:28:35.790Z,14.13
2019-02-15T15:31:04.238Z,13.96
2019-02-15T15:33:32.557Z,13.79
2019-02-15T15:36:00.929Z,13.62
2019-02-15T15:38:29.232Z,13.61
2019-02-15T15:40:57.586Z,13.62
2019-02-15T15:43:25.985Z,13.63
2019-02-15T15:45:54.362Z,13.49
2019-02-15T15:48:23.078Z,13.40
2019-02-15T15:50:51.503Z,13.18
2019-02-15T15:53:19.861Z,13.03
2019-02-15T15:55:48.371Z,12.95
2019-02-15T15:58:16.865Z,12.86
2019-02-15T16:00:45.190Z,12.85
2019-02-15T16:03:13.527Z,12.72
2019-02-15T16:05:41.870Z,12.53
2019-02-15T16:08:10.218Z,12.59
2019-02-15T16:10:38.528Z,12.42
2019-02-15T16:13:07.107Z,12.17
2019-02-15T16:15:35.600Z,12.21
2019-02-15T16:18:04.208Z,12.18
2019-02-15T16:20:32.554Z,12.12
2019-02-15T16:23:01.422Z,11.93
2019-02-15T16:25:32.109Z,11.75
2019-02-15T16:28:00.519Z,11.61
2019-02-15T16:30:28.919Z,11.49
2019-02-15T16:32:57.309Z,11.40
2019-02-15T16:35:25.614Z,11.22
2019-02-15T16:37:53.994Z,11.15
2019-02-15T16:40:22.333Z,10.99
2019-02-15T16:42:50.872Z,10.96
2019-02-15T16:45:19.432Z,10.87
2019-02-15T16:47:48.031Z,10.77
2019-02-15T16:50:16.392Z,10.77
2019-02-15T16:52:44.738Z,10.67
2019-02-15T16:55:13.600Z,10.61
2019-02-15T16:57:43.512Z,10.52
2019-02-15T17:00:13.068Z,10.43
2019-02-15T17:02:41.548Z,10.34
2019-02-15T17:05:10.311Z,10.38
2019-02-15T17:07:38.665Z,10.40
2019-02-15T17:10:09.442Z,10.39
2019-02-15T17:12:38.687Z,10.27
2019-02-15T17:15:10.264Z,10.43
2019-02-15T17:17:38.612Z,10.75
2019-02-15T17:20:09.379Z,10.86
2019-02-15T17:22:37.722Z,10.64
2019-02-15T17:25:08.409Z,10.58
2019-02-15T17:27:36.733Z,10.43
2019-02-15T17:30:08.025Z,10.32
2019-02-15T17:32:36.358Z,10.14
2019-02-15T17:35:07.183Z,10.17
2019-02-15T17:37:35.523Z,10.40
2019-02-15T17:40:07.914Z,10.37
2019-02-15T17:42:36.230Z,10.36
2019-02-15T17:45:06.632Z,10.36
2019-02-15T17:47:34.969Z,10.24
2019-02-15T17:50:03.871Z,10.04
2019-02-15T17:52:32.206Z,10.10
2019-02-15T17:55:00.564Z,10.01
2019-02-15T17:57:28.950Z,10.07
2019-02-15T17:59:57.284Z,9.98
2019-02-15T18:02:25.630Z,10.00
2019-02-15T18:04:53.972Z,9.90
2019-02-15T18:07:22.331Z,9.79
2019-02-15T18:09:50.683Z,9.95
2019-02-15T18:12:19.027Z,10.21
2019-02-15T18:14:47.379Z,10.23
2019-02-15T18:17:16.370Z,10.29
2019-02-15T18:19:47.273Z,10.31
2019-02-15T18:22:15.085Z,10.31
2019-02-15T18:24:43.429Z,10.15
2019-02-15T18:27:11.957Z,10.29
2019-02-15T18:29:40.277Z,10.15
2019-02-15T18:32:08.881Z,9.98
2019-02-15T18:34:37.223Z,9.80
2019-02-15T18:37:05.669Z,9.74
2019-02-15T18:39:34.003Z,9.60
2019-02-15T18:42:02.411Z,9.53
2019-02-15T18:44:30.809Z,9.44
2019-02-15T18:46:59.175Z,9.31
2019-02-15T18:49:27.528Z,9.28
2019-02-15T18:51:56.081Z,9.22
2019-02-15T18:54:24.435Z,9.15
2019-02-15T18:56:52.821Z,9.14
2019-02-15T18:59:21.385Z,9.05
2019-02-15T19:01:49.818Z,9.02
2019-02-15T19:04:18.125Z,8.85
2019-02-15T19:06:46.474Z,8.82
2019-02-15T19:09:14.805Z,8.80
2019-02-15T19:11:43.233Z,8.78
2019-02-15T19:14:12.041Z,8.79
2019-02-15T19:16:40.332Z,8.67
2019-02-15T19:19:08.691Z,8.70
2019-02-15T19:21:37.023Z,8.67
2019-02-15T19:24:05.397Z,8.67
2019-02-15T19:26:33.700Z,8.65
2019-02-15T19:29:02.043Z,8.65
2019-02-15T19:31:30.381Z,8.67
2019-02-15T19:33:58.814Z,8.68
2019-02-15T19:36:27.144Z,8.65
2019-02-15T19:38:55.489Z,8.58
2019-02-15T19:41:24.045Z,8.44
2019-02-15T19:43:52.614Z,8.31
2019-02-15T19:46:24.133Z,8.17
2019-02-15T19:48:54.702Z,8.25
2019-02-15T19:51:24.259Z,8.26
2019-02-15T19:53:52.629Z,8.19
2019-02-15T19:56:21.091Z,8.19
2019-02-15T19:58:49.535Z,8.28
2019-02-15T20:01:17.964Z,8.14
2019-02-15T20:03:46.301Z,8.08
2019-02-15T20:06:15.011Z,8.06
2019-02-15T20:08:43.904Z,7.99
2019-02-15T20:11:12.441Z,7.97
2019-02-15T20:13:40.827Z,7.76
2019-02-15T20:16:09.936Z,7.64
2019-02-15T20:18:38.961Z,7.65
2019-02-15T20:21:09.671Z,7.92
2019-02-15T20:23:40.047Z,7.76
2019-02-15T20:26:08.390Z,7.72
2019-02-15T20:28:37.111Z,7.65
2019-02-15T20:31:05.715Z,7.69
2019-02-15T20:33:34.634Z,7.67
2019-02-15T20:36:05.939Z,7.46
2019-02-15T20:38:35.363Z,7.38
2019-02-15T20:41:04.154Z,7.43
2019-02-15T20:43:33.764Z,7.29
2019-02-15T20:46:02.146Z,7.28
2019-02-15T20:48:30.558Z,7.29
2019-02-15T20:50:59.070Z,7.33
2019-02-15T20:53:27.773Z,7.36
2019-02-15T20:55:56.121Z,7.30
2019-02-15T20:58:24.580Z,7.35
2019-02-15T21:00:53.079Z,7.31
2019-02-15T21:03:21.390Z,7.37
2019-02-15T21:05:50.064Z,7.37
2019-02-15T21:08:18.505Z,7.33
2019-02-15T21:10:54.564Z,7.41
2019-02-15T21:13:20.413Z,7.42
2019-02-15T21:15:47.632Z,7.24
2019-02-15T21:18:15.972Z,7.28
2019-02-15T21:20:44.490Z,7.26
2019-02-15T21:23:13.165Z,7.40
2019-02-15T21:25:41.517Z,7.38
2019-02-15T21:28:10.651Z,7.42
2019-02-15T21:30:39.024Z,7.22
2019-02-15T21:33:07.381Z,7.13
2019-02-15T21:35:35.683Z,6.99
2019-02-15T21:38:04.106Z,7.20
2019-02-15T21:40:32.432Z,7.13
2019-02-15T21:43:00.771Z,7.11
2019-02-15T21:45:29.113Z,7.11
2019-02-15T21:47:57.446Z,7.15
2019-02-15T21:50:25.822Z,7.12
2019-02-15T21:52:54.163Z,6.96
2019-02-15T21:55:22.494Z,6.95
2019-02-15T21:57:50.880Z,6.89
2019-02-15T22:00:20.954Z,6.91
2019-02-15T22:02:49.387Z,6.89
2019-02-15T22:05:18.157Z,6.83
2019-02-15T22:07:46.549Z,6.66
2019-02-15T22:10:15.130Z,6.63
2019-02-15T22:12:43.497Z,6.59
2019-02-15T22:15:13.924Z,6.54
2019-02-15T22:17:42.348Z,6.53
2019-02-15T22:20:13.066Z,6.46
2019-02-15T22:22:41.364Z,6.42
2019-02-15T22:25:10.179Z,6.32
2019-02-15T22:27:38.483Z,6.25
2019-02-15T22:30:12.994Z,6.18
2019-02-15T22:32:42.584Z,6.22
2019-02-15T22:35:11.896Z,6.24
2019-02-15T22:37:40.351Z,6.21
2019-02-15T22:40:17.152Z,6.16
2019-02-15T22:42:45.505Z,6.15
2019-02-15T22:45:14.293Z,6.05
2019-02-15T22:47:42.668Z,6.01
2019-02-15T22:50:11.659Z,5.90
2019-02-15T22:52:39.990Z,5.79
2019-02-15T22:55:08.522Z,5.88
2019-02-15T22:57:36.837Z,5.91
2019-02-15T23:00:12.943Z,5.70
2019-02-15T23:02:40.041Z,5.66
2019-02-15T23:05:09.995Z,5.63
2019-02-15T23:07:38.336Z,5.50
2019-02-15T23:10:08.277Z,5.46
2019-02-15T23:12:36.660Z,5.44
2019-02-15T23:15:05.922Z,5.42
2019-02-15T23:17:34.279Z,5.66
2019-02-15T23:20:02.588Z,5.60
2019-02-15T23:22:30.946Z,5.57
2019-02-15T23:24:59.277Z,5.51
2019-02-15T23:27:27.705Z,5.55
2019-02-15T23:29:56.025Z,5.41
2019-02-15T23:32:24.380Z,5.42
2019-02-15T23:34:52.689Z,5.34
2019-02-15T23:37:21.109Z,5.37
2019-02-15T23:39:49.426Z,5.22
2019-02-15T23:42:17.755Z,5.22
2019-02-15T23:44:46.083Z,5.31
2019-02-15T23:47:14.427Z,5.28
2019-02-15T23:49:42.772Z,5.36
2019-02-15T23:52:11.368Z,5.10
2019-02-15T23:54:39.710Z,5.15
2019-02-15T23:57:08.156Z,5.10
2019-02-15T23:59:36.486Z,5.04
